sensor_id;sensor_type;location;lat;lon;timestamp;P1;durP1;ratioP1;P2;durP2;ratioP2
2011;SDS011;1009;51.436;6.972;2022-07-23T00:01:12;13.93;;;6.97;;
2011;SDS011;1009;51.436;6.972;2022-07-23T00:03:40;10.90;;;6.43;;
2011;SDS011;1009;51.436;6.972;2022-07-23T00:06:10;10.90;;;6.60;;
2011;SDS011;1009;51.436;6.972;2022-07-23T00:08:43;9.60;;;6.30;;
2011;SDS011;1009;51.436;6.972;2022-07-23T00:11:09;9.67;;;7.60;;
2011;SDS011;1009;51.436;6.972;2022-07-23T00:13:36;13.57;;;7.47;;
2011;SDS011;1009;51.436;6.972;2022-07-23T00:16:10;11.70;;;7.00;;
2011;SDS011;1009;51.436;6.972;2022-07-23T00:18:39;10.10;;;7.93;;
2011;SDS011;1009;51.436;6.972;2022-07-23T00:21:06;9.53;;;6.77;;
2011;SDS011;1009;51.436;6.972;2022-07-23T00:23:33;9.93;;;7.40;;
2011;SDS011;1009;51.436;6.972;2022-07-23T00:26:00;11.33;;;7.77;;
2011;SDS011;1009;51.436;6.972;2022-07-23T00:28:27;11.33;;;7.60;;
2011;SDS011;1009;51.436;6.972;2022-07-23T00:30:54;14.13;;;7.90;;
2011;SDS011;1009;51.436;6.972;2022-07-23T00:33:22;12.63;;;8.17;;
2011;SDS011;1009;51.436;6.972;2022-07-23T00:35:49;12.27;;;8.00;;
2011;SDS011;1009;51.436;6.972;2022-07-23T00:38:18;10.20;;;8.10;;
2011;SDS011;1009;51.436;6.972;2022-07-23T00:40:45;9.40;;;7.17;;
2011;SDS011;1009;51.436;6.972;2022-07-23T00:43:12;14.63;;;8.67;;
2011;SDS011;1009;51.436;6.972;2022-07-23T00:45:39;13.00;;;9.20;;
2011;SDS011;1009;51.436;6.972;2022-07-23T00:48:06;14.80;;;9.93;;
2011;SDS011;1009;51.436;6.972;2022-07-23T00:50:34;17.87;;;10.83;;
2011;SDS011;1009;51.436;6.972;2022-07-23T00:53:01;11.83;;;9.90;;
2011;SDS011;1009;51.436;6.972;2022-07-23T00:55:28;14.20;;;9.93;;
2011;SDS011;1009;51.436;6.972;2022-07-23T00:57:55;13.90;;;9.90;;
2011;SDS011;1009;51.436;6.972;2022-07-23T01:00:23;14.00;;;10.53;;
2011;SDS011;1009;51.436;6.972;2022-07-23T01:02:50;14.47;;;10.60;;
2011;SDS011;1009;51.436;6.972;2022-07-23T01:05:17;15.93;;;10.87;;
2011;SDS011;1009;51.436;6.972;2022-07-23T01:07:48;14.47;;;10.33;;
2011;SDS011;1009;51.436;6.972;2022-07-23T01:10:15;16.90;;;11.13;;
2011;SDS011;1009;51.436;6.972;2022-07-23T01:12:57;16.47;;;12.20;;
2011;SDS011;1009;51.436;6.972;2022-07-23T01:15:25;20.17;;;12.53;;
2011;SDS011;1009;51.436;6.972;2022-07-23T01:17:52;18.23;;;12.13;;
2011;SDS011;1009;51.436;6.972;2022-07-23T01:20:19;16.63;;;12.30;;
2011;SDS011;1009;51.436;6.972;2022-07-23T01:22:48;19.30;;;12.70;;
2011;SDS011;1009;51.436;6.972;2022-07-23T01:25:15;19.90;;;12.90;;
2011;SDS011;1009;51.436;6.972;2022-07-23T01:27:41;16.77;;;12.13;;
2011;SDS011;1009;51.436;6.972;2022-07-23T01:30:10;16.80;;;13.23;;
2011;SDS011;1009;51.436;6.972;2022-07-23T01:32:37;17.30;;;13.67;;
2011;SDS011;1009;51.436;6.972;2022-07-23T01:35:05;19.20;;;13.57;;
2011;SDS011;1009;51.436;6.972;2022-07-23T01:37:33;18.20;;;13.73;;
2011;SDS011;1009;51.436;6.972;2022-07-23T01:40:01;17.03;;;12.43;;
2011;SDS011;1009;51.436;6.972;2022-07-23T01:42:29;17.53;;;13.03;;
2011;SDS011;1009;51.436;6.972;2022-07-23T01:44:56;18.57;;;15.10;;
2011;SDS011;1009;51.436;6.972;2022-07-23T01:47:23;22.93;;;15.10;;
2011;SDS011;1009;51.436;6.972;2022-07-23T01:49:49;22.00;;;14.57;;
2011;SDS011;1009;51.436;6.972;2022-07-23T01:52:16;22.30;;;14.40;;
2011;SDS011;1009;51.436;6.972;2022-07-23T01:54:43;20.23;;;14.50;;
2011;SDS011;1009;51.436;6.972;2022-07-23T01:57:11;24.27;;;15.07;;
2011;SDS011;1009;51.436;6.972;2022-07-23T01:59:38;21.07;;;14.83;;
2011;SDS011;1009;51.436;6.972;2022-07-23T02:02:04;19.57;;;13.80;;
2011;SDS011;1009;51.436;6.972;2022-07-23T02:04:31;20.77;;;14.07;;
2011;SDS011;1009;51.436;6.972;2022-07-23T02:07:01;20.30;;;14.27;;
2011;SDS011;1009;51.436;6.972;2022-07-23T02:09:32;19.93;;;14.90;;
2011;SDS011;1009;51.436;6.972;2022-07-23T02:11:59;17.73;;;13.93;;
2011;SDS011;1009;51.436;6.972;2022-07-23T02:14:28;16.03;;;12.50;;
2011;SDS011;1009;51.436;6.972;2022-07-23T02:16:54;20.17;;;13.13;;
2011;SDS011;1009;51.436;6.972;2022-07-23T02:19:21;18.90;;;12.70;;
2011;SDS011;1009;51.436;6.972;2022-07-23T02:21:48;14.47;;;11.37;;
2011;SDS011;1009;51.436;6.972;2022-07-23T02:24:15;14.30;;;10.00;;
2011;SDS011;1009;51.436;6.972;2022-07-23T02:26:45;15.30;;;11.47;;
2011;SDS011;1009;51.436;6.972;2022-07-23T02:29:12;17.80;;;11.97;;
2011;SDS011;1009;51.436;6.972;2022-07-23T02:31:40;17.17;;;11.00;;
2011;SDS011;1009;51.436;6.972;2022-07-23T02:34:07;14.77;;;11.13;;
2011;SDS011;1009;51.436;6.972;2022-07-23T02:36:36;13.83;;;11.30;;
2011;SDS011;1009;51.436;6.972;2022-07-23T02:39:03;12.80;;;10.60;;
2011;SDS011;1009;51.436;6.972;2022-07-23T02:41:30;17.00;;;11.10;;
2011;SDS011;1009;51.436;6.972;2022-07-23T02:43:59;15.83;;;11.80;;
2011;SDS011;1009;51.436;6.972;2022-07-23T02:46:26;14.67;;;10.90;;
2011;SDS011;1009;51.436;6.972;2022-07-23T02:48:54;15.60;;;11.50;;
2011;SDS011;1009;51.436;6.972;2022-07-23T02:51:21;15.87;;;11.70;;
2011;SDS011;1009;51.436;6.972;2022-07-23T02:53:48;16.53;;;11.63;;
2011;SDS011;1009;51.436;6.972;2022-07-23T02:56:14;16.60;;;10.83;;
2011;SDS011;1009;51.436;6.972;2022-07-23T02:58:41;16.30;;;10.97;;
2011;SDS011;1009;51.436;6.972;2022-07-23T03:01:08;14.40;;;10.93;;
2011;SDS011;1009;51.436;6.972;2022-07-23T03:03:35;12.43;;;10.83;;
2011;SDS011;1009;51.436;6.972;2022-07-23T03:06:03;17.17;;;10.70;;
2011;SDS011;1009;51.436;6.972;2022-07-23T03:08:30;16.03;;;10.90;;
2011;SDS011;1009;51.436;6.972;2022-07-23T03:10:57;15.13;;;11.57;;
2011;SDS011;1009;51.436;6.972;2022-07-23T03:13:27;13.67;;;10.90;;
2011;SDS011;1009;51.436;6.972;2022-07-23T03:15:54;18.30;;;12.40;;
2011;SDS011;1009;51.436;6.972;2022-07-23T03:18:21;15.60;;;12.40;;
2011;SDS011;1009;51.436;6.972;2022-07-23T03:20:48;17.70;;;12.60;;
2011;SDS011;1009;51.436;6.972;2022-07-23T03:23:16;14.57;;;11.87;;
2011;SDS011;1009;51.436;6.972;2022-07-23T03:25:43;17.10;;;12.93;;
2011;SDS011;1009;51.436;6.972;2022-07-23T03:28:12;17.43;;;12.60;;
2011;SDS011;1009;51.436;6.972;2022-07-23T03:30:39;16.70;;;11.80;;
2011;SDS011;1009;51.436;6.972;2022-07-23T03:33:05;16.40;;;10.90;;
2011;SDS011;1009;51.436;6.972;2022-07-23T03:35:32;15.13;;;11.70;;
2011;SDS011;1009;51.436;6.972;2022-07-23T03:37:59;13.60;;;11.00;;
2011;SDS011;1009;51.436;6.972;2022-07-23T03:40:27;15.37;;;11.80;;
2011;SDS011;1009;51.436;6.972;2022-07-23T03:42:57;17.13;;;11.20;;
2011;SDS011;1009;51.436;6.972;2022-07-23T03:45:24;14.80;;;11.37;;
2011;SDS011;1009;51.436;6.972;2022-07-23T03:47:54;15.20;;;11.83;;
2011;SDS011;1009;51.436;6.972;2022-07-23T03:50:21;17.37;;;12.57;;
2011;SDS011;1009;51.436;6.972;2022-07-23T03:52:50;14.33;;;10.80;;
2011;SDS011;1009;51.436;6.972;2022-07-23T03:55:19;17.27;;;11.93;;
2011;SDS011;1009;51.436;6.972;2022-07-23T03:57:47;14.13;;;11.13;;
2011;SDS011;1009;51.436;6.972;2022-07-23T04:00:14;18.17;;;12.17;;
2011;SDS011;1009;51.436;6.972;2022-07-23T04:02:41;16.73;;;11.87;;
2011;SDS011;1009;51.436;6.972;2022-07-23T04:05:08;14.43;;;11.20;;
2011;SDS011;1009;51.436;6.972;2022-07-23T04:07:34;18.20;;;11.63;;
2011;SDS011;1009;51.436;6.972;2022-07-23T04:10:01;13.43;;;10.10;;
2011;SDS011;1009;51.436;6.972;2022-07-23T04:12:34;19.00;;;11.93;;
2011;SDS011;1009;51.436;6.972;2022-07-23T04:15:02;15.03;;;10.87;;
2011;SDS011;1009;51.436;6.972;2022-07-23T04:17:30;14.77;;;11.27;;
2011;SDS011;1009;51.436;6.972;2022-07-23T04:19:59;21.23;;;11.60;;
2011;SDS011;1009;51.436;6.972;2022-07-23T04:22:28;13.13;;;11.03;;
2011;SDS011;1009;51.436;6.972;2022-07-23T04:24:54;14.53;;;11.77;;
2011;SDS011;1009;51.436;6.972;2022-07-23T04:27:21;16.20;;;11.93;;
2011;SDS011;1009;51.436;6.972;2022-07-23T04:29:48;14.43;;;10.57;;
2011;SDS011;1009;51.436;6.972;2022-07-23T04:32:16;15.50;;;11.40;;
2011;SDS011;1009;51.436;6.972;2022-07-23T04:34:43;16.77;;;11.70;;
2011;SDS011;1009;51.436;6.972;2022-07-23T04:37:12;16.80;;;12.43;;
2011;SDS011;1009;51.436;6.972;2022-07-23T04:39:39;15.60;;;12.83;;
2011;SDS011;1009;51.436;6.972;2022-07-23T04:42:06;18.13;;;12.60;;
2011;SDS011;1009;51.436;6.972;2022-07-23T04:44:32;16.60;;;12.70;;
2011;SDS011;1009;51.436;6.972;2022-07-23T04:46:59;15.50;;;12.63;;
2011;SDS011;1009;51.436;6.972;2022-07-23T04:49:27;15.60;;;12.60;;
2011;SDS011;1009;51.436;6.972;2022-07-23T04:51:54;17.07;;;12.80;;
2011;SDS011;1009;51.436;6.972;2022-07-23T04:54:21;15.63;;;12.00;;
2011;SDS011;1009;51.436;6.972;2022-07-23T04:56:47;16.27;;;11.57;;
2011;SDS011;1009;51.436;6.972;2022-07-23T04:59:14;18.20;;;12.40;;
2011;SDS011;1009;51.436;6.972;2022-07-23T05:01:41;17.60;;;12.50;;
2011;SDS011;1009;51.436;6.972;2022-07-23T05:04:07;19.70;;;12.37;;
2011;SDS011;1009;51.436;6.972;2022-07-23T05:06:36;18.23;;;12.30;;
2011;SDS011;1009;51.436;6.972;2022-07-23T05:09:02;18.40;;;12.83;;
2011;SDS011;1009;51.436;6.972;2022-07-23T05:11:29;16.40;;;13.23;;
2011;SDS011;1009;51.436;6.972;2022-07-23T05:13:58;15.73;;;12.67;;
2011;SDS011;1009;51.436;6.972;2022-07-23T05:16:25;19.20;;;11.87;;
2011;SDS011;1009;51.436;6.972;2022-07-23T05:18:52;19.00;;;13.57;;
2011;SDS011;1009;51.436;6.972;2022-07-23T05:21:19;22.03;;;14.67;;
2011;SDS011;1009;51.436;6.972;2022-07-23T05:23:47;19.90;;;12.80;;
2011;SDS011;1009;51.436;6.972;2022-07-23T05:26:14;18.07;;;14.37;;
2011;SDS011;1009;51.436;6.972;2022-07-23T05:28:40;21.43;;;15.10;;
2011;SDS011;1009;51.436;6.972;2022-07-23T05:31:13;26.57;;;14.17;;
2011;SDS011;1009;51.436;6.972;2022-07-23T05:33:40;18.80;;;13.40;;
2011;SDS011;1009;51.436;6.972;2022-07-23T05:36:07;17.57;;;13.77;;
2011;SDS011;1009;51.436;6.972;2022-07-23T05:38:34;20.10;;;13.80;;
2011;SDS011;1009;51.436;6.972;2022-07-23T05:41:03;21.47;;;14.33;;
2011;SDS011;1009;51.436;6.972;2022-07-23T05:43:29;22.30;;;15.23;;
2011;SDS011;1009;51.436;6.972;2022-07-23T05:45:56;20.60;;;15.17;;
2011;SDS011;1009;51.436;6.972;2022-07-23T05:48:23;21.30;;;14.70;;
2011;SDS011;1009;51.436;6.972;2022-07-23T05:50:50;21.17;;;15.43;;
2011;SDS011;1009;51.436;6.972;2022-07-23T05:53:16;20.43;;;16.00;;
2011;SDS011;1009;51.436;6.972;2022-07-23T05:55:43;22.67;;;15.23;;
2011;SDS011;1009;51.436;6.972;2022-07-23T05:58:11;21.80;;;15.83;;
2011;SDS011;1009;51.436;6.972;2022-07-23T06:00:38;21.73;;;16.70;;
2011;SDS011;1009;51.436;6.972;2022-07-23T06:03:05;20.17;;;15.70;;
2011;SDS011;1009;51.436;6.972;2022-07-23T06:05:32;22.57;;;17.10;;
2011;SDS011;1009;51.436;6.972;2022-07-23T06:07:59;21.77;;;17.10;;
2011;SDS011;1009;51.436;6.972;2022-07-23T06:10:25;22.53;;;16.53;;
2011;SDS011;1009;51.436;6.972;2022-07-23T06:12:52;24.07;;;17.67;;
2011;SDS011;1009;51.436;6.972;2022-07-23T06:15:20;21.17;;;16.53;;
2011;SDS011;1009;51.436;6.972;2022-07-23T06:17:47;28.40;;;18.67;;
2011;SDS011;1009;51.436;6.972;2022-07-23T06:20:14;25.53;;;17.07;;
2011;SDS011;1009;51.436;6.972;2022-07-23T06:22:41;24.80;;;18.50;;
2011;SDS011;1009;51.436;6.972;2022-07-23T06:25:07;24.10;;;17.77;;
2011;SDS011;1009;51.436;6.972;2022-07-23T06:27:35;25.17;;;17.90;;
2011;SDS011;1009;51.436;6.972;2022-07-23T06:30:01;26.97;;;17.30;;
2011;SDS011;1009;51.436;6.972;2022-07-23T06:32:30;29.83;;;19.30;;
2011;SDS011;1009;51.436;6.972;2022-07-23T06:34:57;27.97;;;17.73;;
2011;SDS011;1009;51.436;6.972;2022-07-23T06:37:23;23.83;;;17.37;;
2011;SDS011;1009;51.436;6.972;2022-07-23T06:39:50;22.63;;;16.20;;
2011;SDS011;1009;51.436;6.972;2022-07-23T06:42:17;23.67;;;16.67;;
2011;SDS011;1009;51.436;6.972;2022-07-23T06:44:43;25.80;;;17.13;;
2011;SDS011;1009;51.436;6.972;2022-07-23T06:47:10;21.80;;;15.97;;
2011;SDS011;1009;51.436;6.972;2022-07-23T06:49:38;23.43;;;16.23;;
2011;SDS011;1009;51.436;6.972;2022-07-23T06:52:06;22.93;;;17.23;;
2011;SDS011;1009;51.436;6.972;2022-07-23T06:54:33;20.30;;;15.80;;
2011;SDS011;1009;51.436;6.972;2022-07-23T06:56:59;25.13;;;17.30;;
2011;SDS011;1009;51.436;6.972;2022-07-23T06:59:26;28.10;;;17.67;;
2011;SDS011;1009;51.436;6.972;2022-07-23T07:01:53;29.63;;;19.70;;
2011;SDS011;1009;51.436;6.972;2022-07-23T07:04:20;24.33;;;18.53;;
2011;SDS011;1009;51.436;6.972;2022-07-23T07:06:48;30.10;;;20.90;;
2011;SDS011;1009;51.436;6.972;2022-07-23T07:09:15;30.27;;;19.47;;
2011;SDS011;1009;51.436;6.972;2022-07-23T07:11:43;29.00;;;21.30;;
2011;SDS011;1009;51.436;6.972;2022-07-23T07:14:09;26.77;;;19.93;;
2011;SDS011;1009;51.436;6.972;2022-07-23T07:16:36;26.50;;;19.03;;
2011;SDS011;1009;51.436;6.972;2022-07-23T07:19:03;25.03;;;18.80;;
2011;SDS011;1009;51.436;6.972;2022-07-23T07:21:30;24.93;;;18.93;;
2011;SDS011;1009;51.436;6.972;2022-07-23T07:23:58;27.23;;;19.27;;
2011;SDS011;1009;51.436;6.972;2022-07-23T07:26:25;26.83;;;19.03;;
2011;SDS011;1009;51.436;6.972;2022-07-23T07:28:51;24.90;;;17.00;;
2011;SDS011;1009;51.436;6.972;2022-07-23T07:31:18;26.23;;;15.93;;
2011;SDS011;1009;51.436;6.972;2022-07-23T07:33:45;22.60;;;17.87;;
2011;SDS011;1009;51.436;6.972;2022-07-23T07:36:12;23.27;;;16.37;;
2011;SDS011;1009;51.436;6.972;2022-07-23T07:38:39;25.37;;;17.17;;
2011;SDS011;1009;51.436;6.972;2022-07-23T07:41:08;25.37;;;18.67;;
2011;SDS011;1009;51.436;6.972;2022-07-23T07:43:35;21.13;;;16.00;;
2011;SDS011;1009;51.436;6.972;2022-07-23T07:46:02;14.97;;;12.43;;
2011;SDS011;1009;51.436;6.972;2022-07-23T07:48:28;17.47;;;12.70;;
2011;SDS011;1009;51.436;6.972;2022-07-23T07:50:55;20.77;;;12.30;;
2011;SDS011;1009;51.436;6.972;2022-07-23T07:53:25;18.57;;;13.23;;
2011;SDS011;1009;51.436;6.972;2022-07-23T07:55:52;18.13;;;11.47;;
2011;SDS011;1009;51.436;6.972;2022-07-23T07:58:20;14.83;;;12.40;;
2011;SDS011;1009;51.436;6.972;2022-07-23T08:00:47;15.17;;;10.73;;
2011;SDS011;1009;51.436;6.972;2022-07-23T08:03:13;15.93;;;11.37;;
2011;SDS011;1009;51.436;6.972;2022-07-23T08:05:46;13.60;;;9.47;;
2011;SDS011;1009;51.436;6.972;2022-07-23T08:08:13;12.97;;;10.03;;
2011;SDS011;1009;51.436;6.972;2022-07-23T08:10:40;15.10;;;9.50;;
2011;SDS011;1009;51.436;6.972;2022-07-23T08:13:10;14.40;;;9.93;;
2011;SDS011;1009;51.436;6.972;2022-07-23T08:15:40;14.27;;;9.70;;
2011;SDS011;1009;51.436;6.972;2022-07-23T08:18:07;10.73;;;9.07;;
2011;SDS011;1009;51.436;6.972;2022-07-23T08:20:34;10.30;;;8.77;;
2011;SDS011;1009;51.436;6.972;2022-07-23T08:23:02;9.50;;;8.20;;
2011;SDS011;1009;51.436;6.972;2022-07-23T08:25:31;8.80;;;7.77;;
2011;SDS011;1009;51.436;6.972;2022-07-23T08:27:59;8.97;;;7.47;;
2011;SDS011;1009;51.436;6.972;2022-07-23T08:30:27;9.83;;;5.90;;
2011;SDS011;1009;51.436;6.972;2022-07-23T08:32:57;6.83;;;6.07;;
2011;SDS011;1009;51.436;6.972;2022-07-23T08:35:29;7.37;;;5.90;;
2011;SDS011;1009;51.436;6.972;2022-07-23T08:37:57;6.97;;;5.30;;
2011;SDS011;1009;51.436;6.972;2022-07-23T08:40:25;7.37;;;4.40;;
2011;SDS011;1009;51.436;6.972;2022-07-23T08:42:53;6.57;;;5.97;;
2011;SDS011;1009;51.436;6.972;2022-07-23T08:45:20;10.37;;;6.40;;
2011;SDS011;1009;51.436;6.972;2022-07-23T08:47:52;6.27;;;5.53;;
2011;SDS011;1009;51.436;6.972;2022-07-23T08:50:23;9.43;;;5.00;;
2011;SDS011;1009;51.436;6.972;2022-07-23T08:52:51;7.57;;;4.83;;
2011;SDS011;1009;51.436;6.972;2022-07-23T08:55:19;6.27;;;4.17;;
2011;SDS011;1009;51.436;6.972;2022-07-23T08:57:49;8.23;;;4.30;;
2011;SDS011;1009;51.436;6.972;2022-07-23T09:00:17;5.10;;;3.20;;
2011;SDS011;1009;51.436;6.972;2022-07-23T09:02:46;5.00;;;4.03;;
2011;SDS011;1009;51.436;6.972;2022-07-23T09:05:14;8.27;;;4.37;;
2011;SDS011;1009;51.436;6.972;2022-07-23T09:10:42;6.53;;;3.30;;
2011;SDS011;1009;51.436;6.972;2022-07-23T09:13:27;4.90;;;3.87;;
2011;SDS011;1009;51.436;6.972;2022-07-23T09:15:57;6.40;;;4.10;;
2011;SDS011;1009;51.436;6.972;2022-07-23T09:18:32;4.80;;;2.90;;
2011;SDS011;1009;51.436;6.972;2022-07-23T09:21:05;4.67;;;3.40;;
2011;SDS011;1009;51.436;6.972;2022-07-23T09:23:55;4.73;;;3.27;;
2011;SDS011;1009;51.436;6.972;2022-07-23T09:26:33;4.90;;;2.90;;
2011;SDS011;1009;51.436;6.972;2022-07-23T09:29:04;4.47;;;3.10;;
2011;SDS011;1009;51.436;6.972;2022-07-23T09:31:33;5.50;;;3.53;;
2011;SDS011;1009;51.436;6.972;2022-07-23T09:34:08;4.20;;;3.17;;
2011;SDS011;1009;51.436;6.972;2022-07-23T09:36:36;5.90;;;4.20;;
2011;SDS011;1009;51.436;6.972;2022-07-23T09:39:05;4.00;;;3.50;;
2011;SDS011;1009;51.436;6.972;2022-07-23T09:41:36;7.07;;;4.33;;
2011;SDS011;1009;51.436;6.972;2022-07-23T09:44:11;3.63;;;2.77;;
2011;SDS011;1009;51.436;6.972;2022-07-23T09:46:41;3.83;;;3.10;;
2011;SDS011;1009;51.436;6.972;2022-07-23T09:49:19;9.97;;;2.80;;
2011;SDS011;1009;51.436;6.972;2022-07-23T09:51:52;6.27;;;4.27;;
2011;SDS011;1009;51.436;6.972;2022-07-23T09:54:32;7.50;;;3.80;;
2011;SDS011;1009;51.436;6.972;2022-07-23T09:57:02;5.70;;;3.03;;
2011;SDS011;1009;51.436;6.972;2022-07-23T09:59:32;3.50;;;2.90;;
2011;SDS011;1009;51.436;6.972;2022-07-23T10:02:00;5.20;;;3.47;;
2011;SDS011;1009;51.436;6.972;2022-07-23T10:04:29;4.57;;;3.60;;
2011;SDS011;1009;51.436;6.972;2022-07-23T10:06:58;4.60;;;3.33;;
2011;SDS011;1009;51.436;6.972;2022-07-23T10:09:29;3.57;;;3.27;;
2011;SDS011;1009;51.436;6.972;2022-07-23T10:12:00;4.33;;;2.87;;
2011;SDS011;1009;51.436;6.972;2022-07-23T10:14:32;4.13;;;2.93;;
2011;SDS011;1009;51.436;6.972;2022-07-23T10:17:04;4.13;;;2.60;;
2011;SDS011;1009;51.436;6.972;2022-07-23T10:19:37;5.67;;;2.77;;
2011;SDS011;1009;51.436;6.972;2022-07-23T10:22:06;5.53;;;3.40;;
2011;SDS011;1009;51.436;6.972;2022-07-23T10:24:39;8.17;;;3.20;;
2011;SDS011;1009;51.436;6.972;2022-07-23T10:30:16;5.30;;;4.27;;
2011;SDS011;1009;51.436;6.972;2022-07-23T10:32:51;5.83;;;3.17;;
2011;SDS011;1009;51.436;6.972;2022-07-23T10:35:29;4.23;;;3.03;;
2011;SDS011;1009;51.436;6.972;2022-07-23T10:38:02;4.30;;;3.40;;
2011;SDS011;1009;51.436;6.972;2022-07-23T10:40:38;3.37;;;2.83;;
2011;SDS011;1009;51.436;6.972;2022-07-23T10:43:20;5.80;;;3.03;;
2011;SDS011;1009;51.436;6.972;2022-07-23T10:45:46;4.20;;;2.90;;
2011;SDS011;1009;51.436;6.972;2022-07-23T10:48:15;2.77;;;2.23;;
2011;SDS011;1009;51.436;6.972;2022-07-23T10:50:43;3.97;;;3.23;;
2011;SDS011;1009;51.436;6.972;2022-07-23T10:53:31;6.40;;;3.33;;
2011;SDS011;1009;51.436;6.972;2022-07-23T10:59:31;7.17;;;3.07;;
2011;SDS011;1009;51.436;6.972;2022-07-23T11:02:33;4.00;;;2.80;;
2011;SDS011;1009;51.436;6.972;2022-07-23T11:05:00;6.53;;;3.77;;
2011;SDS011;1009;51.436;6.972;2022-07-23T11:07:30;4.87;;;2.80;;
2011;SDS011;1009;51.436;6.972;2022-07-23T11:10:00;5.93;;;4.00;;
2011;SDS011;1009;51.436;6.972;2022-07-23T11:12:33;4.33;;;3.80;;
2011;SDS011;1009;51.436;6.972;2022-07-23T11:15:02;4.87;;;2.80;;
2011;SDS011;1009;51.436;6.972;2022-07-23T11:17:38;5.80;;;3.43;;
2011;SDS011;1009;51.436;6.972;2022-07-23T11:20:24;3.13;;;2.30;;
2011;SDS011;1009;51.436;6.972;2022-07-23T11:22:58;3.67;;;2.20;;
2011;SDS011;1009;51.436;6.972;2022-07-23T11:25:29;3.80;;;3.13;;
2011;SDS011;1009;51.436;6.972;2022-07-23T11:28:10;6.13;;;3.30;;
2011;SDS011;1009;51.436;6.972;2022-07-23T11:30:40;3.37;;;2.20;;
2011;SDS011;1009;51.436;6.972;2022-07-23T11:33:19;4.70;;;2.23;;
2011;SDS011;1009;51.436;6.972;2022-07-23T11:35:48;4.13;;;2.03;;
2011;SDS011;1009;51.436;6.972;2022-07-23T11:38:25;3.63;;;2.33;;
2011;SDS011;1009;51.436;6.972;2022-07-23T11:40:53;3.97;;;2.17;;
2011;SDS011;1009;51.436;6.972;2022-07-23T11:43:25;3.47;;;2.60;;
2011;SDS011;1009;51.436;6.972;2022-07-23T11:45:53;4.20;;;2.23;;
2011;SDS011;1009;51.436;6.972;2022-07-23T11:48:23;2.70;;;2.00;;
2011;SDS011;1009;51.436;6.972;2022-07-23T11:50:56;4.67;;;2.07;;
2011;SDS011;1009;51.436;6.972;2022-07-23T11:53:26;3.30;;;2.37;;
2011;SDS011;1009;51.436;6.972;2022-07-23T11:55:54;2.63;;;2.37;;
2011;SDS011;1009;51.436;6.972;2022-07-23T11:58:30;4.03;;;2.00;;
2011;SDS011;1009;51.436;6.972;2022-07-23T12:00:56;3.40;;;2.50;;
2011;SDS011;1009;51.436;6.972;2022-07-23T12:03:23;2.33;;;2.00;;
2011;SDS011;1009;51.436;6.972;2022-07-23T12:05:55;4.10;;;2.20;;
2011;SDS011;1009;51.436;6.972;2022-07-23T12:08:22;2.30;;;1.90;;
2011;SDS011;1009;51.436;6.972;2022-07-23T12:10:49;4.57;;;2.13;;
2011;SDS011;1009;51.436;6.972;2022-07-23T12:13:17;4.20;;;2.13;;
2011;SDS011;1009;51.436;6.972;2022-07-23T12:15:48;3.70;;;2.60;;
2011;SDS011;1009;51.436;6.972;2022-07-23T12:18:16;2.33;;;1.57;;
2011;SDS011;1009;51.436;6.972;2022-07-23T12:20:47;3.47;;;1.97;;
2011;SDS011;1009;51.436;6.972;2022-07-23T12:23:16;3.00;;;1.90;;
2011;SDS011;1009;51.436;6.972;2022-07-23T12:25:45;4.00;;;2.13;;
2011;SDS011;1009;51.436;6.972;2022-07-23T12:28:13;3.43;;;2.27;;
2011;SDS011;1009;51.436;6.972;2022-07-23T12:30:42;3.50;;;2.17;;
2011;SDS011;1009;51.436;6.972;2022-07-23T12:33:13;2.60;;;2.20;;
2011;SDS011;1009;51.436;6.972;2022-07-23T12:35:42;3.00;;;1.97;;
2011;SDS011;1009;51.436;6.972;2022-07-23T12:38:11;2.40;;;1.83;;
2011;SDS011;1009;51.436;6.972;2022-07-23T12:40:42;4.47;;;2.90;;
2011;SDS011;1009;51.436;6.972;2022-07-23T12:43:11;2.63;;;1.90;;
2011;SDS011;1009;51.436;6.972;2022-07-23T12:45:45;2.50;;;1.90;;
2011;SDS011;1009;51.436;6.972;2022-07-23T12:48:22;3.27;;;2.33;;
2011;SDS011;1009;51.436;6.972;2022-07-23T12:50:54;3.43;;;2.77;;
2011;SDS011;1009;51.436;6.972;2022-07-23T12:53:23;1.90;;;1.70;;
2011;SDS011;1009;51.436;6.972;2022-07-23T12:55:56;4.23;;;2.10;;
2011;SDS011;1009;51.436;6.972;2022-07-23T12:58:25;2.67;;;2.37;;
2011;SDS011;1009;51.436;6.972;2022-07-23T13:00:53;4.00;;;2.30;;
2011;SDS011;1009;51.436;6.972;2022-07-23T13:03:28;2.97;;;2.13;;
2011;SDS011;1009;51.436;6.972;2022-07-23T13:05:57;3.40;;;2.17;;
2011;SDS011;1009;51.436;6.972;2022-07-23T13:08:26;3.53;;;2.60;;
2011;SDS011;1009;51.436;6.972;2022-07-23T13:10:54;3.10;;;2.50;;
2011;SDS011;1009;51.436;6.972;2022-07-23T13:13:21;4.07;;;2.30;;
2011;SDS011;1009;51.436;6.972;2022-07-23T13:15:49;2.97;;;2.37;;
2011;SDS011;1009;51.436;6.972;2022-07-23T13:18:17;3.90;;;2.37;;
2011;SDS011;1009;51.436;6.972;2022-07-23T13:20:46;3.23;;;2.60;;
2011;SDS011;1009;51.436;6.972;2022-07-23T13:23:14;4.27;;;2.87;;
2011;SDS011;1009;51.436;6.972;2022-07-23T13:25:41;3.77;;;2.00;;
2011;SDS011;1009;51.436;6.972;2022-07-23T13:28:08;3.27;;;2.47;;
2011;SDS011;1009;51.436;6.972;2022-07-23T13:30:35;8.13;;;2.40;;
2011;SDS011;1009;51.436;6.972;2022-07-23T13:33:03;3.37;;;2.30;;
2011;SDS011;1009;51.436;6.972;2022-07-23T13:35:30;2.80;;;2.50;;
2011;SDS011;1009;51.436;6.972;2022-07-23T13:37:58;2.90;;;2.60;;
2011;SDS011;1009;51.436;6.972;2022-07-23T13:40:25;2.80;;;2.17;;
2011;SDS011;1009;51.436;6.972;2022-07-23T13:42:52;2.87;;;2.50;;
2011;SDS011;1009;51.436;6.972;2022-07-23T13:45:18;3.60;;;1.90;;
2011;SDS011;1009;51.436;6.972;2022-07-23T13:47:45;5.80;;;2.60;;
2011;SDS011;1009;51.436;6.972;2022-07-23T13:50:12;2.67;;;1.93;;
2011;SDS011;1009;51.436;6.972;2022-07-23T13:52:41;2.30;;;1.90;;
2011;SDS011;1009;51.436;6.972;2022-07-23T13:55:09;3.33;;;1.97;;
2011;SDS011;1009;51.436;6.972;2022-07-23T13:57:36;3.63;;;2.40;;
2011;SDS011;1009;51.436;6.972;2022-07-23T14:00:03;2.70;;;2.10;;
2011;SDS011;1009;51.436;6.972;2022-07-23T14:02:32;6.67;;;2.60;;
2011;SDS011;1009;51.436;6.972;2022-07-23T14:04:58;4.97;;;3.00;;
2011;SDS011;1009;51.436;6.972;2022-07-23T14:07:25;4.33;;;3.30;;
2011;SDS011;1009;51.436;6.972;2022-07-23T14:09:52;5.03;;;3.60;;
2011;SDS011;1009;51.436;6.972;2022-07-23T14:12:20;6.03;;;3.33;;
2011;SDS011;1009;51.436;6.972;2022-07-23T14:14:47;4.10;;;3.47;;
2011;SDS011;1009;51.436;6.972;2022-07-23T14:17:14;5.53;;;3.37;;
2011;SDS011;1009;51.436;6.972;2022-07-23T14:19:40;4.17;;;3.20;;
2011;SDS011;1009;51.436;6.972;2022-07-23T14:22:07;4.10;;;3.60;;
2011;SDS011;1009;51.436;6.972;2022-07-23T14:24:34;2.80;;;2.50;;
2011;SDS011;1009;51.436;6.972;2022-07-23T14:27:02;3.90;;;2.50;;
2011;SDS011;1009;51.436;6.972;2022-07-23T14:29:31;3.00;;;2.60;;
2011;SDS011;1009;51.436;6.972;2022-07-23T14:31:58;2.70;;;2.17;;
2011;SDS011;1009;51.436;6.972;2022-07-23T14:34:26;3.33;;;2.53;;
2011;SDS011;1009;51.436;6.972;2022-07-23T14:36:53;5.27;;;2.77;;
2011;SDS011;1009;51.436;6.972;2022-07-23T14:39:19;4.27;;;2.80;;
2011;SDS011;1009;51.436;6.972;2022-07-23T14:41:46;3.93;;;2.73;;
2011;SDS011;1009;51.436;6.972;2022-07-23T14:44:13;3.57;;;2.60;;
2011;SDS011;1009;51.436;6.972;2022-07-23T14:46:41;3.10;;;2.50;;
2011;SDS011;1009;51.436;6.972;2022-07-23T14:49:08;3.40;;;3.00;;
2011;SDS011;1009;51.436;6.972;2022-07-23T14:51:35;3.20;;;2.50;;
2011;SDS011;1009;51.436;6.972;2022-07-23T14:54:02;3.30;;;2.60;;
2011;SDS011;1009;51.436;6.972;2022-07-23T14:56:29;4.87;;;3.20;;
2011;SDS011;1009;51.436;6.972;2022-07-23T14:58:56;2.60;;;2.40;;
2011;SDS011;1009;51.436;6.972;2022-07-23T15:01:23;3.90;;;2.23;;
2011;SDS011;1009;51.436;6.972;2022-07-23T15:03:51;3.50;;;2.10;;
2011;SDS011;1009;51.436;6.972;2022-07-23T15:06:17;3.47;;;2.50;;
2011;SDS011;1009;51.436;6.972;2022-07-23T15:08:44;3.10;;;2.80;;
2011;SDS011;1009;51.436;6.972;2022-07-23T15:11:11;4.60;;;2.10;;
2011;SDS011;1009;51.436;6.972;2022-07-23T15:13:38;5.20;;;2.50;;
2011;SDS011;1009;51.436;6.972;2022-07-23T15:16:06;3.60;;;3.00;;
2011;SDS011;1009;51.436;6.972;2022-07-23T15:18:34;4.80;;;2.70;;